CheckWX is a tool to help pilots better visualize weather data.  It is not intended as a substitute for an official pre-flight weather briefing.

18:01:22 UTC

KHSA METAR
Stennis International Airport
Bay St Louis, Mississippi, USA
Current

1 hour ago

KHSA 171650Z 16008KT 7SM OVC008 22/21 A2986
Observed
Feb-17 @ 16:50 UTC
Wind
  • 160° at 8 KTS
Visibility
7 SM
Flight Rules
IFR
Cloud Levels
  • Overcast at 800' AGL
Temperature
22°C / 72°F
Dewpoint
21°C / 70°F
Humidity
94%
Altimeter
29.86" Hg
Pressure
1011.22 hPa
Previous

2 hours ago

KHSA 171551Z 17010KT 7SM OVC005 20/19 A2985
Observed
Feb-17 @ 15:51 UTC
Wind
  • 170° at 10 KTS
Visibility
7 SM
Flight Rules
IFR
Cloud Levels
  • Overcast at 500' AGL
Temperature
20°C / 68°F
Dewpoint
19°C / 66°F
Humidity
94%
Altimeter
29.85" Hg
Pressure
1010.82 hPa
Previous

3 hours ago

KHSA 171450Z 18004KT 1SM BR OVC004 19/18 A2985
Observed
Feb-17 @ 14:50 UTC
Wind
  • 180° at 4 KTS
Visibility
1 SM
Flight Rules
LIFR
Conditions
Mist
Cloud Levels
  • Overcast at 400' AGL
Temperature
19°C / 66°F
Dewpoint
18°C / 64°F
Humidity
94%
Altimeter
29.85" Hg
Pressure
1010.82 hPa